Time;durP1;ratioP1;P1;durP2;ratioP2;P2;SDS_P1;SDS_P2;PMS_P1;PMS_P2;Temp;Humidity;BMP_temperature;BMP_pressure;BME280_temperature;BME280_humidity;BME280_pressure;Samples;Min_cycle;Max_cycle;Signal;HPM_P1;HPM_P2
2022/11/27 00:02:41;;;;;;;7.38;3.67;;;;;;;-11.20;88.47;102840.38;10651343;27;20059;-75
2022/11/27 00:07:44;;;;;;;7.70;3.80;;;;;;;-11.21;89.12;102848.41;10600901;28;20043;-76
2022/11/27 00:12:46;;;;;;;7.80;3.85;;;;;;;-11.26;89.09;102824.81;10595514;27;20044;-75
2022/11/27 00:17:48;;;;;;;6.93;2.88;;;;;;;-11.27;88.45;102833.72;10576440;28;20070;-75
2022/11/27 00:22:50;;;;;;;5.57;3.15;;;;;;;-11.26;88.24;102835.41;10629201;27;20039;-75
2022/11/27 00:27:52;;;;;;;6.50;3.00;;;;;;;-11.27;88.71;102829.28;10576906;27;20067;-75
2022/11/27 00:32:54;;;;;;;7.07;3.30;;;;;;;-11.26;88.67;102841.56;10576293;27;20040;-74
2022/11/27 00:37:56;;;;;;;6.68;3.13;;;;;;;-11.23;88.35;102829.09;10593490;28;20516;-74
2022/11/27 00:43:00;;;;;;;7.10;3.55;;;;;;;-11.16;88.58;102825.16;10586136;28;20044;-75
2022/11/27 00:48:02;;;;;;;6.78;3.70;;;;;;;-11.13;88.19;102817.00;10583404;27;20047;-74
2022/11/27 00:53:04;;;;;;;5.47;3.28;;;;;;;-11.12;88.79;102826.66;10592412;28;20414;-75
2022/11/27 00:58:06;;;;;;;7.50;3.30;;;;;;;-11.14;88.77;102825.91;10599082;28;20055;-75
2022/11/27 01:03:08;;;;;;;7.82;3.67;;;;;;;-11.01;88.45;102829.56;10595380;27;20509;-76
2022/11/27 01:08:11;;;;;;;7.65;3.45;;;;;;;-11.06;88.47;102823.69;10597687;28;20046;-74
2022/11/27 01:13:13;;;;;;;8.05;3.85;;;;;;;-11.03;88.07;102820.84;10582416;27;20510;-74
2022/11/27 01:18:15;;;;;;;5.60;2.80;;;;;;;-11.05;87.75;102822.75;10598087;27;20051;-74
2022/11/27 01:23:18;;;;;;;4.65;2.55;;;;;;;-11.05;88.27;102815.66;10583356;28;20418;-74
2022/11/27 01:28:24;;;;;;;9.70;4.53;;;;;;;-11.08;87.46;102826.44;10577496;27;20055;-75
2022/11/27 01:33:26;;;;;;;5.28;2.80;;;;;;;-11.09;87.21;102814.13;10555728;28;20083;-74
2022/11/27 01:38:29;;;;;;;6.97;4.03;;;;;;;-11.06;87.82;102821.03;10604431;28;20624;-75
2022/11/27 01:43:42;;;;;;;6.10;2.88;;;;;;;-11.09;88.02;102813.28;10598548;28;20036;-74
2022/11/27 01:48:50;;;;;;;8.32;3.60;;;;;;;-11.13;87.66;102811.72;10573681;28;20039;-74
2022/11/27 01:53:53;;;;;;;5.13;1.83;;;;;;;-11.13;87.47;102809.91;10609117;27;20044;-74
2022/11/27 01:58:59;;;;;;;9.88;4.13;;;;;;;-11.14;87.92;102820.59;10597340;28;20054;-75
2022/11/27 02:04:02;;;;;;;9.25;3.38;;;;;;;-11.13;87.48;102817.00;10538625;28;20522;-74
2022/11/27 02:09:08;;;;;;;8.27;4.30;;;;;;;-11.13;87.87;102814.34;10551443;28;20051;-74
2022/11/27 02:14:25;;;;;;;5.93;3.35;;;;;;;-11.20;87.87;102816.50;10571025;28;20055;-74
2022/11/27 02:19:49;;;;;;;6.68;3.45;;;;;;;-11.21;87.99;102822.75;10537205;28;20047;-74
2022/11/27 02:25:04;;;;;;;7.53;3.75;;;;;;;-11.22;88.00;102812.25;10594858;28;20082;-75
2022/11/27 02:30:06;;;;;;;6.88;3.45;;;;;;;-11.22;87.81;102810.44;10595051;28;20047;-75
2022/11/27 02:35:16;;;;;;;8.43;4.63;;;;;;;-11.26;88.08;102823.03;10595050;28;20043;-74
2022/11/27 02:40:18;;;;;;;8.43;4.10;;;;;;;-11.31;88.15;102810.97;10595564;28;20050;-74
2022/11/27 02:45:32;;;;;;;9.07;4.22;;;;;;;-11.32;88.25;102811.91;10598990;27;20039;-74
2022/11/27 02:50:36;;;;;;;7.22;3.60;;;;;;;-11.30;87.67;102821.47;10636087;27;20039;-75
2022/11/27 02:55:39;;;;;;;5.40;3.25;;;;;;;-11.27;87.87;102823.13;10604904;28;20042;-74
2022/11/27 03:00:42;;;;;;;6.80;3.50;;;;;;;-11.23;88.60;102823.78;10594482;28;20052;-74
2022/11/27 03:05:46;;;;;;;6.50;3.13;;;;;;;-11.30;87.73;102826.75;10562227;28;20063;-74
2022/11/27 03:10:57;;;;;;;6.78;3.13;;;;;;;-11.30;87.29;102824.13;10549136;28;20529;-74
2022/11/27 03:16:12;;;;;;;7.30;3.42;;;;;;;-11.36;87.59;102829.75;10586968;28;20054;-74
2022/11/27 03:21:30;;;;;;;;;;;;;;;-11.40;87.43;102830.03;10581207;27;20413;-75
2022/11/27 03:26:37;;;;;;;5.45;2.67;;;;;;;-11.42;87.70;102838.06;10572548;28;19945;-75
2022/11/27 03:31:40;;;;;;;8.13;3.53;;;;;;;-11.44;88.08;102837.31;10551155;28;20435;-75
2022/11/27 03:36:42;;;;;;;6.22;3.40;;;;;;;-11.45;88.18;102829.41;10580547;28;20043;-74
2022/11/27 03:42:04;;;;;;;3.95;2.53;;;;;;;-11.43;88.37;102840.81;10610667;28;20498;-74
2022/11/27 03:47:28;;;;;;;7.85;3.70;;;;;;;-11.44;87.68;102825.84;10537365;28;20569;-74
2022/11/27 03:52:48;;;;;;;6.65;3.13;;;;;;;-11.34;88.37;102819.09;10601136;28;20040;-74
2022/11/27 03:58:00;;;;;;;7.30;4.07;;;;;;;-11.28;88.35;102819.63;10579299;28;20044;-74
2022/11/27 04:03:04;;;;;;;8.15;3.33;;;;;;;-11.32;87.63;102817.19;10594170;28;20051;-74
2022/11/27 04:08:06;;;;;;;7.55;4.15;;;;;;;-11.32;87.99;102833.94;10610318;28;20044;-74
2022/11/27 04:13:12;;;;;;;8.43;3.47;;;;;;;-11.28;87.96;102837.28;10607984;28;20028;-74
2022/11/27 04:18:15;;;;;;;11.05;4.13;;;;;;;-11.27;87.78;102817.81;10589771;28;20043;-75
2022/11/27 04:23:21;;;;;;;10.68;4.50;;;;;;;-11.26;87.74;102825.69;10591313;28;20070;-75
2022/11/27 04:28:23;;;;;;;4.38;1.83;;;;;;;-11.27;87.73;102818.66;10611679;27;20055;-75
2022/11/27 04:33:26;;;;;;;5.22;2.92;;;;;;;-11.29;88.03;102824.97;10628298;27;20047;-75
2022/11/27 04:38:28;;;;;;;7.85;3.90;;;;;;;-11.30;88.57;102824.13;10653412;27;20046;-74
2022/11/27 04:43:30;;;;;;;6.32;3.67;;;;;;;-11.28;87.75;102819.63;10638748;27;20038;-74
2022/11/27 04:48:36;;;;;;;5.85;3.58;;;;;;;-11.27;87.83;102829.28;10617551;27;20691;-75
2022/11/27 04:53:38;;;;;;;5.65;2.85;;;;;;;-11.19;88.23;102835.91;10602756;27;20035;-75
2022/11/27 04:58:40;;;;;;;8.65;3.95;;;;;;;-11.14;88.22;102839.16;10616721;28;20056;-74
2022/11/27 05:04:07;;;;;;;8.10;4.63;;;;;;;-11.05;88.50;102830.69;10615536;28;20040;-74
2022/11/27 05:09:10;;;;;;;5.93;3.35;;;;;;;-11.02;88.26;102836.66;10578763;28;20036;-74
2022/11/27 05:14:20;;;;;;;10.32;4.35;;;;;;;-11.02;88.67;102831.38;10609758;27;20048;-74
2022/11/27 05:19:25;;;;;;;8.52;3.72;;;;;;;-11.03;88.27;102818.22;10639439;27;20047;-74
2022/11/27 05:24:27;;;;;;;8.10;3.80;;;;;;;-10.97;88.18;102833.75;10604951;27;20051;-74
2022/11/27 05:29:30;;;;;;;6.15;3.33;;;;;;;-10.93;88.15;102824.72;10573328;28;20048;-73
2022/11/27 05:34:32;;;;;;;9.00;4.70;;;;;;;-10.84;87.78;102834.75;10606829;27;20040;-73
2022/11/27 05:39:34;;;;;;;7.93;4.00;;;;;;;-10.85;87.89;102832.19;10596943;28;20413;-73
2022/11/27 05:44:36;;;;;;;8.98;3.88;;;;;;;-10.83;88.12;102831.16;10619572;27;20516;-74
2022/11/27 05:49:38;;;;;;;9.80;4.00;;;;;;;-10.76;87.43;102836.97;10607994;27;20040;-74
2022/11/27 05:54:40;;;;;;;9.20;3.95;;;;;;;-10.69;87.85;102833.03;10614115;28;20066;-74
2022/11/27 05:59:43;;;;;;;7.90;3.72;;;;;;;-10.65;88.19;102822.13;10621359;27;20042;-74
2022/11/27 06:04:45;;;;;;;6.40;3.30;;;;;;;-10.59;87.47;102828.88;10633067;27;20677;-74
2022/11/27 06:09:47;;;;;;;2.13;1.58;;;;;;;-10.58;87.72;102825.31;10596036;28;20044;-73
2022/11/27 06:14:49;;;;;;;8.07;4.10;;;;;;;-10.56;87.82;102822.56;10601660;27;20044;-74
2022/11/27 06:19:51;;;;;;;10.18;4.32;;;;;;;-10.51;87.76;102833.75;10613377;28;20065;-73
2022/11/27 06:24:53;;;;;;;7.45;4.40;;;;;;;-10.46;87.62;102847.59;10605760;28;20036;-74
2022/11/27 06:29:56;;;;;;;7.93;3.72;;;;;;;-10.48;88.13;102838.88;10609820;28;20430;-74
2022/11/27 06:34:58;;;;;;;7.65;4.22;;;;;;;-10.45;88.12;102843.97;10611470;28;20047;-74
2022/11/27 06:40:00;;;;;;;11.43;5.63;;;;;;;-10.44;87.77;102851.00;10591958;28;20524;-74
2022/11/27 06:45:02;;;;;;;10.63;4.43;;;;;;;-10.42;87.71;102849.94;10590394;27;20048;-75
2022/11/27 06:50:06;;;;;;;7.93;3.60;;;;;;;-10.39;88.14;102843.63;10574401;28;20514;-74
2022/11/27 06:55:08;;;;;;;9.38;4.35;;;;;;;-10.36;88.68;102852.25;10608633;27;20061;-74
2022/11/27 07:00:11;;;;;;;8.70;4.13;;;;;;;-10.30;87.80;102847.53;10622475;27;20053;-75
2022/11/27 07:05:13;;;;;;;11.00;5.15;;;;;;;-10.23;87.83;102848.88;10625523;27;20058;-74
2022/11/27 07:10:15;;;;;;;9.13;4.25;;;;;;;-10.20;88.29;102841.56;10606642;28;20055;-75
2022/11/27 07:15:18;;;;;;;8.35;3.80;;;;;;;-10.21;87.82;102853.16;10610025;28;20700;-74
2022/11/27 07:20:20;;;;;;;12.48;4.65;;;;;;;-10.20;87.44;102846.00;10608323;28;20067;-75
2022/11/27 07:25:23;;;;;;;6.20;3.05;;;;;;;-10.15;88.16;102849.22;10604935;27;20043;-75
2022/11/27 07:30:26;;;;;;;8.50;3.78;;;;;;;-10.18;88.01;102858.25;10610786;28;20043;-75
2022/11/27 07:35:29;;;;;;;7.32;4.00;;;;;;;-10.18;88.19;102855.59;10611626;28;20396;-75
2022/11/27 07:40:31;;;;;;;11.35;5.32;;;;;;;-10.15;87.80;102849.22;10575143;28;20051;-75
2022/11/27 07:45:33;;;;;;;7.25;3.92;;;;;;;-10.13;88.24;102842.88;10592788;28;20031;-75
2022/11/27 07:50:35;;;;;;;7.22;4.05;;;;;;;-10.12;88.71;102849.91;10606705;28;20040;-75
2022/11/27 07:55:42;;;;;;;11.48;4.72;;;;;;;-10.09;88.71;102846.19;10590798;28;20035;-76
2022/11/27 08:00:45;;;;;;;7.68;3.45;;;;;;;-10.08;89.03;102850.56;10568153;28;20055;-74
2022/11/27 08:05:48;;;;;;;10.38;4.68;;;;;;;-10.05;88.44;102858.38;10607952;28;20046;-75
2022/11/27 08:10:50;;;;;;;11.55;4.93;;;;;;;-10.01;89.14;102861.69;10614935;27;20028;-75
2022/11/27 08:15:52;;;;;;;9.85;4.57;;;;;;;-9.95;89.19;102863.94;10616631;28;20039;-75
2022/11/27 08:20:59;;;;;;;7.07;3.78;;;;;;;-9.84;88.77;102864.16;10599924;28;20066;-75
2022/11/27 08:26:04;;;;;;;5.70;1.77;;;;;;;-9.75;89.09;102869.75;10620838;27;20046;-75
2022/11/27 08:31:08;;;;;;;14.00;5.55;;;;;;;-9.69;88.90;102871.19;10618014;28;20044;-75
2022/11/27 08:36:10;;;;;;;9.23;4.30;;;;;;;-9.65;89.17;102878.00;10599923;28;20043;-74
2022/11/27 08:41:13;;;;;;;7.07;3.80;;;;;;;-9.52;89.42;102875.47;10616235;28;20035;-74
2022/11/27 08:46:15;;;;;;;12.13;4.82;;;;;;;-9.47;89.56;102884.00;10615331;27;20040;-75
2022/11/27 08:51:17;;;;;;;11.40;4.75;;;;;;;-9.45;89.29;102874.97;10590344;28;20051;-74
2022/11/27 08:56:25;;;;;;;9.45;4.85;;;;;;;-9.40;89.48;102865.84;10617630;28;20410;-76
2022/11/27 09:01:29;;;;;;;12.10;5.68;;;;;;;-9.39;89.53;102872.84;10613252;28;20716;-75
2022/11/27 09:06:33;;;;;;;11.18;4.60;;;;;;;-9.31;89.26;102873.25;10598982;28;20047;-75
2022/11/27 09:11:36;;;;;;;12.85;5.95;;;;;;;-9.24;89.40;102870.09;10615277;28;20560;-75
2022/11/27 09:16:38;;;;;;;6.28;3.78;;;;;;;-9.21;89.76;102871.69;10616057;28;20031;-75
2022/11/27 09:21:41;;;;;;;5.95;3.47;;;;;;;-9.18;89.20;102864.41;10598324;28;20489;-75
2022/11/27 09:26:43;;;;;;;11.82;4.97;;;;;;;-9.09;90.33;102872.72;10598107;28;20043;-74
2022/11/27 09:31:46;;;;;;;13.35;5.55;;;;;;;-9.08;89.95;102861.97;10614411;28;20181;-75
2022/11/27 09:36:49;;;;;;;13.63;6.10;;;;;;;-9.02;90.70;102866.94;10597465;28;20051;-75
2022/11/27 09:41:54;;;;;;;14.57;5.65;;;;;;;-8.96;90.07;102879.81;10558354;27;20052;-75
2022/11/27 09:46:59;;;;;;;10.77;4.32;;;;;;;-8.92;90.68;102881.31;10596531;28;20044;-75
2022/11/27 09:52:05;;;;;;;8.73;3.72;;;;;;;-8.88;90.99;102885.47;10567000;28;20047;-75
2022/11/27 09:57:14;;;;;;;12.48;4.80;;;;;;;-8.83;90.79;102880.75;10619502;27;20049;-75
2022/11/27 10:02:36;;;;;;;12.60;3.92;;;;;;;-8.73;90.63;102877.47;10608118;28;20059;-76
2022/11/27 10:08:06;;;;;;;7.15;4.10;;;;;;;-8.65;91.05;102881.34;10628751;27;20050;-76
2022/11/27 10:13:27;;;;;;;8.32;4.68;;;;;;;-8.58;91.11;102877.31;10615085;27;20212;-77
2022/11/27 10:18:53;;;;;;;9.15;4.32;;;;;;;-8.56;91.06;102867.41;10571879;27;20058;-74
2022/11/27 10:24:06;;;;;;;12.23;5.80;;;;;;;-8.50;91.22;102868.81;10576915;27;20077;-75
2022/11/27 10:29:12;;;;;;;12.18;6.07;;;;;;;-8.46;91.11;102869.47;10547745;27;20040;-76
2022/11/27 10:34:40;;;;;;;10.93;5.32;;;;;;;-8.38;91.65;102872.44;10604167;27;20062;-75
2022/11/27 10:39:51;;;;;;;10.57;3.75;;;;;;;-8.28;91.18;102871.72;10583292;27;20047;-73
2022/11/27 10:45:00;;;;;;;8.85;4.47;;;;;;;-8.23;91.05;102871.38;10561129;28;20046;-73
2022/11/27 10:50:02;;;;;;;12.77;5.68;;;;;;;-8.23;91.42;102861.59;10555065;28;20051;-73
2022/11/27 10:55:15;;;;;;;11.35;5.35;;;;;;;-8.21;91.06;102872.97;10612748;27;20047;-74
2022/11/27 11:00:22;;;;;;;10.98;4.63;;;;;;;-8.19;91.56;102872.88;10590307;28;20078;-74
2022/11/27 11:05:26;;;;;;;11.13;5.30;;;;;;;-8.18;91.56;102869.25;10589817;27;20047;-73
2022/11/27 11:10:41;;;;;;;9.52;5.82;;;;;;;-8.17;91.21;102880.75;10590428;27;20063;-74
2022/11/27 11:15:55;;;;;;;12.35;6.43;;;;;;;-8.17;91.09;102881.63;10592286;28;20035;-74
2022/11/27 11:20:59;;;;;;;11.38;6.20;;;;;;;-8.17;91.85;102880.75;10615870;27;20058;-74
2022/11/27 11:26:07;;;;;;;13.50;6.95;;;;;;;-8.15;91.31;102878.88;10598003;27;20036;-75
2022/11/27 11:31:16;;;;;;;13.73;5.60;;;;;;;-8.10;91.81;102866.94;10581934;27;20052;-77
2022/11/27 11:36:19;;;;;;;15.90;6.88;;;;;;;-7.99;91.50;102871.50;10614489;28;20036;-76
2022/11/27 11:41:23;;;;;;;11.18;6.15;;;;;;;-7.98;91.83;102871.44;10620213;27;20051;-74
2022/11/27 11:46:31;;;;;;;6.57;4.68;;;;;;;-7.95;92.11;102851.72;10627990;27;20046;-75
2022/11/27 11:52:05;;;;;;;10.20;4.28;;;;;;;-7.95;92.29;102851.72;10624422;28;20051;-73
2022/11/27 11:57:23;;;;;;;8.45;3.58;;;;;;;-7.91;92.01;102850.53;10602816;27;20489;-72
2022/11/27 12:02:28;;;;;;;11.63;6.05;;;;;;;-7.85;91.61;102844.78;10564964;28;20039;-72
2022/11/27 12:07:45;;;;;;;11.80;6.15;;;;;;;-7.79;91.86;102840.84;10626717;27;20528;-71
2022/11/27 12:13:05;;;;;;;12.38;5.82;;;;;;;-7.72;92.06;102847.44;10618614;27;20416;-72
2022/11/27 12:18:26;;;;;;;11.13;5.78;;;;;;;-7.69;91.62;102848.06;10632235;27;20028;-71
2022/11/27 12:23:35;;;;;;;12.98;5.82;;;;;;;-7.64;91.91;102853.06;10554490;27;20046;-73
2022/11/27 12:29:05;;;;;;;6.45;2.47;;;;;;;-7.65;91.72;102854.88;10640053;27;20050;-73
2022/11/27 12:34:19;;;;;;;7.97;3.08;;;;;;;-7.69;91.47;102842.72;10575611;28;20040;-73
2022/11/27 12:39:43;;;;;;;13.27;5.93;;;;;;;-7.62;91.40;102841.34;10545119;28;20534;-72
2022/11/27 12:45:04;;;;;;;11.23;4.35;;;;;;;-7.59;91.63;102845.63;10565951;28;20486;-73
2022/11/27 12:50:12;;;;;;;11.80;4.95;;;;;;;-7.55;91.39;102843.56;10564484;28;20036;-73
2022/11/27 12:55:18;;;;;;;12.38;5.70;;;;;;;-7.55;91.34;102836.44;10580633;28;20043;-73
2022/11/27 13:00:23;;;;;;;9.57;5.05;;;;;;;-7.54;91.68;102840.78;10558009;28;20055;-73
2022/11/27 13:05:27;;;;;;;9.98;4.85;;;;;;;-7.55;91.39;102844.44;10555652;28;20057;-73
2022/11/27 13:10:35;;;;;;;5.38;2.78;;;;;;;-7.56;91.62;102844.53;10582201;28;20548;-73
2022/11/27 13:15:41;;;;;;;12.48;4.22;;;;;;;-7.56;91.15;102844.53;10579248;28;20055;-73
2022/11/27 13:20:45;;;;;;;11.05;4.38;;;;;;;-7.60;91.86;102855.44;10539893;28;20047;-71
2022/11/27 13:25:52;;;;;;;9.18;4.40;;;;;;;-7.64;91.85;102851.25;10562581;28;20063;-73
2022/11/27 13:30:57;;;;;;;8.15;3.40;;;;;;;-7.64;92.06;102847.72;10586010;27;20054;-73
2022/11/27 13:36:04;;;;;;;8.65;4.05;;;;;;;-7.64;92.36;102856.59;10596599;27;20047;-73
2022/11/27 13:41:07;;;;;;;11.65;5.57;;;;;;;-7.61;92.63;102867.06;10601916;27;20138;-72
2022/11/27 13:46:24;;;;;;;8.13;4.30;;;;;;;-7.55;92.19;102857.75;10594120;27;20058;-73
2022/11/27 13:51:37;;;;;;;8.48;4.90;;;;;;;-7.48;92.63;102866.16;10568902;27;20055;-73
2022/11/27 13:56:40;;;;;;;10.85;5.28;;;;;;;-7.49;92.51;102861.78;10645523;27;20063;-73
2022/11/27 14:02:12;;;;;;;7.40;4.07;;;;;;;-7.39;91.63;102869.03;10610673;27;20062;-72
2022/11/27 14:07:14;;;;;;;9.57;3.55;;;;;;;-7.38;91.95;102870.75;10608345;27;20055;-72
2022/11/27 14:12:20;;;;;;;9.43;4.40;;;;;;;-7.37;91.76;102866.25;10598755;28;20044;-74
2022/11/27 14:17:35;;;;;;;11.30;4.93;;;;;;;-7.37;92.12;102868.94;10604259;28;20036;-73
2022/11/27 14:22:47;;;;;;;11.02;4.85;;;;;;;-7.36;91.94;102871.47;10605641;27;20047;-74
2022/11/27 14:28:16;;;;;;;16.23;7.05;;;;;;;-7.30;91.83;102864.84;10593967;28;20048;-74
2022/11/27 14:33:26;;;;;;;13.27;5.15;;;;;;;-7.22;91.79;102870.50;10600005;28;20056;-72
2022/11/27 14:38:31;;;;;;;4.80;3.00;;;;;;;-7.18;91.69;102871.13;10574587;28;20106;-75
2022/11/27 14:43:33;;;;;;;14.13;4.25;;;;;;;-7.17;91.93;102872.81;10547723;28;20040;-73
2022/11/27 14:48:57;;;;;;;8.48;4.28;;;;;;;-7.18;92.40;102885.31;10562139;28;20048;-74
2022/11/27 14:54:08;;;;;;;9.13;4.18;;;;;;;-7.14;91.92;102883.28;10528262;28;20047;-73
2022/11/27 14:59:21;;;;;;;9.27;4.47;;;;;;;-7.08;91.84;102889.03;10509714;28;20423;-73
2022/11/27 15:04:37;;;;;;;10.55;5.93;;;;;;;-7.06;92.21;102892.44;10510038;28;20047;-74
2022/11/27 15:09:43;;;;;;;9.38;4.63;;;;;;;-7.04;92.10;102887.84;10476999;28;20055;-74
2022/11/27 15:14:54;;;;;;;11.52;5.85;;;;;;;-7.02;91.88;102888.56;10544267;28;20044;-73
2022/11/27 15:19:57;;;;;;;10.73;5.75;;;;;;;-7.03;92.15;102880.69;10534577;28;20043;-73
2022/11/27 15:25:06;;;;;;;10.93;5.57;;;;;;;-6.97;91.52;102880.22;10569074;28;20242;-74
2022/11/27 15:30:16;;;;;;;9.23;4.53;;;;;;;-6.95;92.08;102869.44;10559206;28;20059;-74
2022/11/27 15:35:21;;;;;;;10.93;5.80;;;;;;;-6.99;92.16;102864.34;10527248;28;20039;-73
2022/11/27 15:40:37;;;;;;;10.95;4.85;;;;;;;-6.96;92.10;102873.06;10508955;28;20059;-74
2022/11/27 15:45:39;;;;;;;9.38;4.25;;;;;;;-6.94;91.70;102873.81;10512478;28;20032;-74
2022/11/27 15:50:42;;;;;;;8.57;5.00;;;;;;;-6.94;92.00;102868.47;10527006;28;20040;-73
2022/11/27 15:55:44;;;;;;;10.40;5.80;;;;;;;-6.92;92.09;102874.59;10526891;28;20043;-73
2022/11/27 16:00:46;;;;;;;11.70;5.72;;;;;;;-6.96;91.75;102865.91;10539066;28;20502;-73
2022/11/27 16:05:48;;;;;;;3.33;2.63;;;;;;;-6.95;92.12;102874.78;10535789;28;20059;-72
2022/11/27 16:10:51;;;;;;;7.88;4.93;;;;;;;-6.93;91.55;102892.41;10532580;28;20036;-73
2022/11/27 16:15:54;;;;;;;8.10;3.92;;;;;;;-6.91;91.61;102890.47;10540473;28;20063;-73
2022/11/27 16:21:04;;;;;;;5.50;3.17;;;;;;;-6.88;92.32;102881.38;10558135;28;20051;-73
2022/11/27 16:26:09;;;;;;;8.15;5.03;;;;;;;-6.89;92.03;102888.53;10522408;28;20071;-73
2022/11/27 16:31:12;;;;;;;8.23;4.20;;;;;;;-6.88;92.11;102894.75;10565055;28;20659;-72
2022/11/27 16:36:17;;;;;;;5.72;3.00;;;;;;;-6.84;91.97;102904.22;10591177;27;20040;-73
2022/11/27 16:41:21;;;;;;;5.00;3.22;;;;;;;-6.82;92.40;102897.78;10602374;28;20047;-73
2022/11/27 16:46:31;;;;;;;5.93;2.78;;;;;;;-6.77;91.99;102892.13;10617757;27;20035;-73
2022/11/27 16:51:36;;;;;;;5.60;3.42;;;;;;;-6.75;92.25;102896.41;10591189;28;20047;-72
2022/11/27 16:56:39;;;;;;;7.03;3.00;;;;;;;-6.73;91.92;102898.97;10630385;27;20450;-72
2022/11/27 17:01:42;;;;;;;6.78;2.92;;;;;;;-6.70;92.10;102899.56;10595731;28;20405;-74
2022/11/27 17:06:46;;;;;;;4.53;2.75;;;;;;;-6.68;92.05;102894.97;10560255;27;20039;-77
2022/11/27 17:11:49;;;;;;;11.10;4.78;;;;;;;-6.66;92.48;102888.66;10584325;27;20047;-72
2022/11/27 17:16:53;;;;;;;10.98;5.50;;;;;;;-6.65;91.96;102885.88;10582564;27;20218;-82
2022/11/27 17:21:56;;;;;;;10.70;4.93;;;;;;;-6.63;92.08;102891.94;10594761;27;20047;-82
2022/11/27 17:26:59;;;;;;;10.55;5.30;;;;;;;-6.63;91.98;102894.63;10593785;27;20062;-83
2022/11/27 17:32:08;;;;;;;11.63;5.63;;;;;;;-6.60;91.48;102896.22;10634512;27;20039;-80
2022/11/27 17:37:11;;;;;;;10.32;5.32;;;;;;;-6.63;91.88;102899.97;10574659;27;20043;-82
2022/11/27 17:42:13;;;;;;;8.23;4.65;;;;;;;-6.60;91.99;102899.72;10599554;28;20043;-80
2022/11/27 17:47:16;;;;;;;11.30;5.70;;;;;;;-6.59;91.86;102893.44;10615724;27;20050;-82
2022/11/27 17:52:18;;;;;;;11.30;4.28;;;;;;;-6.61;91.96;102897.16;10622369;27;20053;-80
2022/11/27 17:57:20;;;;;;;10.50;4.35;;;;;;;-6.62;91.77;102903.47;10590003;27;20135;-84
2022/11/27 18:02:22;;;;;;;6.45;3.58;;;;;;;-6.63;92.06;102910.63;10640231;27;20429;-78
2022/11/27 18:07:25;;;;;;;6.28;3.15;;;;;;;-6.63;92.26;102905.31;10636385;27;20062;-78
2022/11/27 18:12:28;;;;;;;9.77;5.03;;;;;;;-6.62;92.08;102911.50;10611309;28;20082;-78
2022/11/27 18:17:30;;;;;;;7.88;4.10;;;;;;;-6.62;92.29;102916.84;10607856;28;20036;-78
2022/11/27 18:22:33;;;;;;;9.70;4.88;;;;;;;-6.59;92.08;102925.50;10595766;27;20490;-79
2022/11/27 18:27:35;;;;;;;9.95;4.95;;;;;;;-6.53;92.06;102916.16;10612244;27;20055;-76
2022/11/27 18:32:38;;;;;;;8.52;4.55;;;;;;;-6.50;92.05;102911.44;10615140;28;20061;-78
2022/11/27 18:37:40;;;;;;;6.05;3.83;;;;;;;-6.47;92.09;102913.03;10624127;27;20405;-76
2022/11/27 18:42:42;;;;;;;7.28;3.75;;;;;;;-6.48;93.04;102906.84;10629177;27;20048;-77
2022/11/27 18:47:44;;;;;;;8.50;4.70;;;;;;;-6.48;92.44;102914.84;10619974;27;20042;-79
2022/11/27 18:52:47;;;;;;;11.13;4.32;;;;;;;-6.49;92.80;102902.47;10640902;27;20062;-78
2022/11/27 18:57:49;;;;;;;9.75;5.13;;;;;;;-6.47;92.74;102900.53;10627415;27;20043;-78
2022/11/27 19:02:51;;;;;;;8.60;4.55;;;;;;;-6.44;92.67;102905.63;10601880;27;20050;-78
2022/11/27 19:07:54;;;;;;;9.90;4.35;;;;;;;-6.41;92.47;102913.44;10596694;27;20043;-76
2022/11/27 19:12:56;;;;;;;6.53;4.20;;;;;;;-6.41;92.85;102916.13;10650762;27;20069;-78
2022/11/27 19:17:59;;;;;;;7.30;4.40;;;;;;;-6.34;92.73;102915.66;10600036;27;20401;-77
2022/11/27 19:23:03;;;;;;;11.35;5.13;;;;;;;-6.27;92.79;102914.22;10598674;28;20814;-77
2022/11/27 19:28:07;;;;;;;10.23;5.30;;;;;;;-6.28;93.26;102910.69;10593194;28;20035;-77
2022/11/27 19:33:09;;;;;;;12.73;4.95;;;;;;;-6.28;92.95;102910.69;10601309;27;20053;-78
2022/11/27 19:38:12;;;;;;;7.07;3.83;;;;;;;-6.28;92.98;102910.69;10603020;28;20050;-77
2022/11/27 19:43:14;;;;;;;7.10;3.92;;;;;;;-6.27;93.56;102903.53;10603604;28;20057;-78
2022/11/27 19:48:17;;;;;;;9.38;5.38;;;;;;;-6.24;93.59;102905.97;10617978;28;20046;-76
2022/11/27 19:53:21;;;;;;;9.63;4.68;;;;;;;-6.22;93.83;102904.91;10604764;28;20046;-77
2022/11/27 19:58:29;;;;;;;7.97;4.30;;;;;;;-6.19;93.77;102910.00;10613701;28;20387;-77
2022/11/27 20:03:33;;;;;;;7.28;3.75;;;;;;;-6.15;93.64;102922.16;10611041;28;20533;-78
2022/11/27 20:08:37;;;;;;;8.23;4.45;;;;;;;-6.12;93.87;102918.41;10623371;27;20041;-77
2022/11/27 20:13:39;;;;;;;7.65;4.22;;;;;;;-6.10;94.47;102919.97;10648393;27;20063;-79
2022/11/27 20:18:43;;;;;;;9.13;4.90;;;;;;;-6.04;94.10;102933.88;10634079;27;20040;-78
2022/11/27 20:23:46;;;;;;;9.40;5.18;;;;;;;-6.04;94.19;102929.38;10626602;27;20054;-79
2022/11/27 20:28:50;;;;;;;8.68;5.05;;;;;;;-5.96;94.03;102932.31;10603601;27;20055;-83
2022/11/27 20:33:56;;;;;;;8.98;5.07;;;;;;;-5.94;93.92;102937.53;10575354;28;20054;-79
2022/11/27 20:38:59;;;;;;;8.95;4.70;;;;;;;-5.92;93.75;102927.56;10620799;28;20034;-80
2022/11/27 20:44:03;;;;;;;10.77;5.55;;;;;;;-5.91;93.82;102931.94;10609082;27;20048;-77
2022/11/27 20:49:05;;;;;;;8.15;4.38;;;;;;;-5.89;93.85;102927.31;10614338;27;20039;-80
2022/11/27 20:54:09;;;;;;;7.53;4.90;;;;;;;-5.86;94.00;102922.59;10637750;27;20036;-85
2022/11/27 20:59:12;;;;;;;8.32;4.20;;;;;;;-5.84;94.27;102919.78;10599931;27;20523;-79
2022/11/27 21:04:20;;;;;;;8.32;4.70;;;;;;;-5.82;93.88;102915.16;10631777;27;20038;-80
2022/11/27 21:09:23;;;;;;;11.88;5.80;;;;;;;-5.81;94.07;102923.06;10629600;27;20497;-74
2022/11/27 21:14:25;;;;;;;10.43;5.45;;;;;;;-5.77;94.04;102919.19;10614445;27;20533;-76
2022/11/27 21:19:29;;;;;;;8.18;4.60;;;;;;;-5.73;93.98;102925.16;10599872;28;20039;-76
2022/11/27 21:24:31;;;;;;;9.88;4.97;;;;;;;-5.70;94.01;102924.94;10605162;28;20045;-78
2022/11/27 21:29:34;;;;;;;9.75;4.40;;;;;;;-5.69;94.24;102918.59;10625722;28;20105;-75
2022/11/27 21:34:40;;;;;;;9.88;5.47;;;;;;;-5.67;93.73;102913.13;10597421;27;20035;-75
2022/11/27 21:39:43;;;;;;;7.43;4.30;;;;;;;-5.66;93.75;102920.19;10624179;27;20050;-75
2022/11/27 21:44:46;;;;;;;8.05;4.68;;;;;;;-5.65;94.00;102912.03;10625730;27;20040;-77
2022/11/27 21:49:50;;;;;;;8.95;4.57;;;;;;;-5.62;93.80;102918.97;10624192;27;20043;-79
2022/11/27 21:54:53;;;;;;;3.92;2.38;;;;;;;-5.62;94.63;102925.16;10621938;27;20043;-82
2022/11/27 21:59:56;;;;;;;11.18;5.10;;;;;;;-5.60;94.33;102925.06;10629963;28;20162;-82
2022/11/27 22:04:58;;;;;;;10.52;3.55;;;;;;;-5.60;94.68;102922.38;10610623;27;20048;-81
2022/11/27 22:10:00;;;;;;;8.82;5.05;;;;;;;-5.59;94.19;102932.94;10622958;27;20035;-76
2022/11/27 22:15:04;;;;;;;6.35;3.88;;;;;;;-5.58;94.38;102920.44;10578186;28;20579;-82
2022/11/27 22:20:06;;;;;;;10.43;4.20;;;;;;;-5.57;94.80;102917.63;10637526;27;20430;-80
2022/11/27 22:25:09;;;;;;;7.93;3.95;;;;;;;-5.57;95.03;102906.94;10611756;27;20062;-80
2022/11/27 22:30:12;;;;;;;9.93;5.07;;;;;;;-5.54;94.78;102905.88;10597083;28;20057;-80
2022/11/27 22:35:15;;;;;;;7.30;4.10;;;;;;;-5.52;94.88;102903.91;10629242;27;20039;-78
2022/11/27 22:40:17;;;;;;;6.72;3.05;;;;;;;-5.50;95.12;102913.53;10617713;27;20047;-78
2022/11/27 22:45:20;;;;;;;9.00;5.05;;;;;;;-5.45;95.01;102915.84;10625523;27;20042;-78
2022/11/27 22:50:22;;;;;;;8.30;4.45;;;;;;;-5.42;95.18;102925.44;10581608;28;20044;-80
2022/11/27 22:55:24;;;;;;;7.53;3.70;;;;;;;-5.43;95.54;102919.22;10633901;27;20057;-80
2022/11/27 23:00:26;;;;;;;9.20;4.18;;;;;;;-5.40;95.32;102918.97;10626358;27;20035;-79
2022/11/27 23:05:28;;;;;;;7.10;3.67;;;;;;;-5.41;95.71;102914.59;10633715;27;20035;-79
2022/11/27 23:10:31;;;;;;;9.07;4.70;;;;;;;-5.42;95.76;102912.06;10574445;28;20044;-76
2022/11/27 23:15:34;;;;;;;9.48;4.25;;;;;;;-5.40;95.17;102915.47;10591532;28;20079;-77